sensor_id;sensor_type;location;lat;lon;timestamp;temperature;humidity
11264;DHT22;5689;48.798;9.070;2023-03-01T00:01:19;-2.60;99.90
11264;DHT22;5689;48.798;9.070;2023-03-01T00:03:47;-2.40;99.90
11264;DHT22;5689;48.798;9.070;2023-03-01T00:06:17;-2.40;99.90
11264;DHT22;5689;48.798;9.070;2023-03-01T00:08:45;-2.30;99.90
11264;DHT22;5689;48.798;9.070;2023-03-01T00:11:16;-2.30;99.90
11264;DHT22;5689;48.798;9.070;2023-03-01T00:13:46;-2.50;99.90
11264;DHT22;5689;48.798;9.070;2023-03-01T00:16:16;-2.40;99.90
11264;DHT22;5689;48.798;9.070;2023-03-01T00:18:44;-2.50;99.90
11264;DHT22;5689;48.798;9.070;2023-03-01T00:21:12;-2.50;99.90
11264;DHT22;5689;48.798;9.070;2023-03-01T00:23:42;-2.40;99.90
11264;DHT22;5689;48.798;9.070;2023-03-01T00:26:12;-2.40;99.90
11264;DHT22;5689;48.798;9.070;2023-03-01T00:28:41;-2.40;99.90
11264;DHT22;5689;48.798;9.070;2023-03-01T00:31:12;-2.30;99.90
11264;DHT22;5689;48.798;9.070;2023-03-01T00:33:41;-2.30;99.90
11264;DHT22;5689;48.798;9.070;2023-03-01T00:36:11;-2.50;99.90
11264;DHT22;5689;48.798;9.070;2023-03-01T00:38:41;-2.50;99.90
11264;DHT22;5689;48.798;9.070;2023-03-01T00:41:11;-2.60;99.90
11264;DHT22;5689;48.798;9.070;2023-03-01T00:43:41;-2.70;99.90
11264;DHT22;5689;48.798;9.070;2023-03-01T00:46:11;-2.80;99.90
11264;DHT22;5689;48.798;9.070;2023-03-01T00:48:40;-2.80;99.90
11264;DHT22;5689;48.798;9.070;2023-03-01T00:51:11;-2.90;99.90
11264;DHT22;5689;48.798;9.070;2023-03-01T00:53:41;-2.90;99.90
11264;DHT22;5689;48.798;9.070;2023-03-01T00:56:10;-2.90;99.90
11264;DHT22;5689;48.798;9.070;2023-03-01T00:58:39;-2.90;99.90
11264;DHT22;5689;48.798;9.070;2023-03-01T01:01:08;-2.70;99.90
11264;DHT22;5689;48.798;9.070;2023-03-01T01:03:45;-2.80;99.90
11264;DHT22;5689;48.798;9.070;2023-03-01T01:06:18;-2.80;99.90
11264;DHT22;5689;48.798;9.070;2023-03-01T01:08:49;-2.80;99.90
11264;DHT22;5689;48.798;9.070;2023-03-01T01:11:18;-2.90;99.90
11264;DHT22;5689;48.798;9.070;2023-03-01T01:13:47;-3.00;99.90
11264;DHT22;5689;48.798;9.070;2023-03-01T01:16:17;-3.10;99.90
11264;DHT22;5689;48.798;9.070;2023-03-01T01:18:47;-3.20;99.90
11264;DHT22;5689;48.798;9.070;2023-03-01T01:21:18;-3.20;99.90
11264;DHT22;5689;48.798;9.070;2023-03-01T01:23:49;-3.00;99.90
11264;DHT22;5689;48.798;9.070;2023-03-01T01:26:18;-3.00;99.90
11264;DHT22;5689;48.798;9.070;2023-03-01T01:28:49;-2.90;99.90
11264;DHT22;5689;48.798;9.070;2023-03-01T01:31:18;-2.90;99.90
11264;DHT22;5689;48.798;9.070;2023-03-01T01:33:46;-3.00;99.90
11264;DHT22;5689;48.798;9.070;2023-03-01T01:36:14;-3.00;99.90
11264;DHT22;5689;48.798;9.070;2023-03-01T01:38:44;-3.00;99.90
11264;DHT22;5689;48.798;9.070;2023-03-01T01:41:14;-2.90;99.90
11264;DHT22;5689;48.798;9.070;2023-03-01T01:43:45;-3.00;99.90
11264;DHT22;5689;48.798;9.070;2023-03-01T01:46:20;-2.90;99.90
11264;DHT22;5689;48.798;9.070;2023-03-01T01:48:53;-2.80;99.90
11264;DHT22;5689;48.798;9.070;2023-03-01T01:51:27;-2.90;99.90
11264;DHT22;5689;48.798;9.070;2023-03-01T01:53:58;-3.10;99.90
11264;DHT22;5689;48.798;9.070;2023-03-01T01:56:29;-3.30;99.90
11264;DHT22;5689;48.798;9.070;2023-03-01T01:58:57;-3.20;99.90
11264;DHT22;5689;48.798;9.070;2023-03-01T02:01:25;-3.30;99.90
11264;DHT22;5689;48.798;9.070;2023-03-01T02:03:53;-3.10;99.90
11264;DHT22;5689;48.798;9.070;2023-03-01T02:06:26;-3.20;99.90
11264;DHT22;5689;48.798;9.070;2023-03-01T02:08:59;-3.30;99.90
11264;DHT22;5689;48.798;9.070;2023-03-01T02:11:30;-3.30;99.90
11264;DHT22;5689;48.798;9.070;2023-03-01T02:13:58;-3.40;99.90
11264;DHT22;5689;48.798;9.070;2023-03-01T02:16:27;-3.30;99.90
11264;DHT22;5689;48.798;9.070;2023-03-01T02:18:56;-3.20;99.90
11264;DHT22;5689;48.798;9.070;2023-03-01T02:21:34;-3.10;99.90
11264;DHT22;5689;48.798;9.070;2023-03-01T02:24:10;-3.00;99.90
11264;DHT22;5689;48.798;9.070;2023-03-01T02:26:47;-2.70;99.90
11264;DHT22;5689;48.798;9.070;2023-03-01T02:29:18;-2.70;99.90
11264;DHT22;5689;48.798;9.070;2023-03-01T02:31:47;-2.40;99.90
11264;DHT22;5689;48.798;9.070;2023-03-01T02:34:17;-2.40;99.90
11264;DHT22;5689;48.798;9.070;2023-03-01T02:36:48;-2.60;99.90
11264;DHT22;5689;48.798;9.070;2023-03-01T02:39:21;-2.40;99.90
11264;DHT22;5689;48.798;9.070;2023-03-01T02:41:52;-2.30;99.90
11264;DHT22;5689;48.798;9.070;2023-03-01T02:44:22;-2.30;99.90
11264;DHT22;5689;48.798;9.070;2023-03-01T02:46:51;-2.20;99.90
11264;DHT22;5689;48.798;9.070;2023-03-01T02:49:22;-2.10;99.90
11264;DHT22;5689;48.798;9.070;2023-03-01T02:52:12;-2.10;99.90
11264;DHT22;5689;48.798;9.070;2023-03-01T02:54:46;-2.10;99.90
11264;DHT22;5689;48.798;9.070;2023-03-01T02:57:15;-2.10;99.90
11264;DHT22;5689;48.798;9.070;2023-03-01T02:59:45;-1.90;99.90
11264;DHT22;5689;48.798;9.070;2023-03-01T03:02:22;-1.80;99.90
11264;DHT22;5689;48.798;9.070;2023-03-01T03:05:08;-1.50;99.90
11264;DHT22;5689;48.798;9.070;2023-03-01T03:07:39;-1.50;99.90
11264;DHT22;5689;48.798;9.070;2023-03-01T03:10:11;-1.40;99.90
11264;DHT22;5689;48.798;9.070;2023-03-01T03:12:40;-1.40;99.90
11264;DHT22;5689;48.798;9.070;2023-03-01T03:15:10;-1.50;99.90
11264;DHT22;5689;48.798;9.070;2023-03-01T03:17:41;-1.30;99.90
11264;DHT22;5689;48.798;9.070;2023-03-01T03:20:12;-1.50;99.90
11264;DHT22;5689;48.798;9.070;2023-03-01T03:22:46;-1.70;99.90
11264;DHT22;5689;48.798;9.070;2023-03-01T03:25:15;-1.70;99.90
11264;DHT22;5689;48.798;9.070;2023-03-01T03:27:45;-1.60;99.90
11264;DHT22;5689;48.798;9.070;2023-03-01T03:30:17;-1.60;99.90
11264;DHT22;5689;48.798;9.070;2023-03-01T03:32:47;-1.60;99.90
11264;DHT22;5689;48.798;9.070;2023-03-01T03:35:20;-1.50;99.90
11264;DHT22;5689;48.798;9.070;2023-03-01T03:37:49;-1.30;99.90
11264;DHT22;5689;48.798;9.070;2023-03-01T03:40:34;-1.00;99.90
11264;DHT22;5689;48.798;9.070;2023-03-01T03:43:04;-1.10;99.90
11264;DHT22;5689;48.798;9.070;2023-03-01T03:45:34;-1.20;99.90
11264;DHT22;5689;48.798;9.070;2023-03-01T03:48:04;-1.30;99.90
11264;DHT22;5689;48.798;9.070;2023-03-01T03:50:33;-1.30;99.90
11264;DHT22;5689;48.798;9.070;2023-03-01T03:53:02;-1.30;99.90
11264;DHT22;5689;48.798;9.070;2023-03-01T03:55:31;-1.30;99.90
11264;DHT22;5689;48.798;9.070;2023-03-01T03:58:03;-1.20;99.90
11264;DHT22;5689;48.798;9.070;2023-03-01T04:00:36;-1.00;99.90
11264;DHT22;5689;48.798;9.070;2023-03-01T04:03:04;-1.10;99.90
11264;DHT22;5689;48.798;9.070;2023-03-01T04:05:33;-1.20;99.90
11264;DHT22;5689;48.798;9.070;2023-03-01T04:08:01;-1.20;99.90
11264;DHT22;5689;48.798;9.070;2023-03-01T04:10:30;-1.20;99.90
11264;DHT22;5689;48.798;9.070;2023-03-01T04:12:58;-1.10;99.90
11264;DHT22;5689;48.798;9.070;2023-03-01T04:15:27;-1.10;99.90
11264;DHT22;5689;48.798;9.070;2023-03-01T04:17:56;-1.10;99.90
11264;DHT22;5689;48.798;9.070;2023-03-01T04:20:28;-1.20;99.90
11264;DHT22;5689;48.798;9.070;2023-03-01T04:23:00;-1.20;99.90
11264;DHT22;5689;48.798;9.070;2023-03-01T04:25:38;-1.10;99.90
11264;DHT22;5689;48.798;9.070;2023-03-01T04:28:08;-0.80;99.90
11264;DHT22;5689;48.798;9.070;2023-03-01T04:30:48;-0.80;99.90
11264;DHT22;5689;48.798;9.070;2023-03-01T04:33:17;-0.80;99.90
11264;DHT22;5689;48.798;9.070;2023-03-01T04:35:46;-0.90;99.90
11264;DHT22;5689;48.798;9.070;2023-03-01T04:38:16;-0.90;99.90
11264;DHT22;5689;48.798;9.070;2023-03-01T04:40:45;-0.90;99.90
11264;DHT22;5689;48.798;9.070;2023-03-01T04:43:13;-0.90;99.90
11264;DHT22;5689;48.798;9.070;2023-03-01T04:45:42;-0.80;99.90
11264;DHT22;5689;48.798;9.070;2023-03-01T04:48:12;-0.90;99.90
11264;DHT22;5689;48.798;9.070;2023-03-01T04:50:40;-1.00;99.90
11264;DHT22;5689;48.798;9.070;2023-03-01T04:53:08;-1.00;99.90
11264;DHT22;5689;48.798;9.070;2023-03-01T04:55:37;-1.00;99.90
11264;DHT22;5689;48.798;9.070;2023-03-01T04:58:05;-0.70;99.90
11264;DHT22;5689;48.798;9.070;2023-03-01T05:00:33;-0.70;99.90
11264;DHT22;5689;48.798;9.070;2023-03-01T05:03:01;-0.60;99.90
11264;DHT22;5689;48.798;9.070;2023-03-01T05:05:33;-0.60;99.90
11264;DHT22;5689;48.798;9.070;2023-03-01T05:08:03;-0.60;99.90
11264;DHT22;5689;48.798;9.070;2023-03-01T05:10:34;-0.60;99.90
11264;DHT22;5689;48.798;9.070;2023-03-01T05:13:03;-0.50;99.90
11264;DHT22;5689;48.798;9.070;2023-03-01T05:15:32;-0.30;99.90
11264;DHT22;5689;48.798;9.070;2023-03-01T05:18:00;-0.20;99.90
11264;DHT22;5689;48.798;9.070;2023-03-01T05:20:31;-0.30;99.90
11264;DHT22;5689;48.798;9.070;2023-03-01T05:23:03;-0.30;99.90
11264;DHT22;5689;48.798;9.070;2023-03-01T05:25:33;-0.30;99.90
11264;DHT22;5689;48.798;9.070;2023-03-01T05:28:01;-0.20;99.90
11264;DHT22;5689;48.798;9.070;2023-03-01T05:30:31;-0.50;99.90
11264;DHT22;5689;48.798;9.070;2023-03-01T05:33:00;-0.40;99.90
11264;DHT22;5689;48.798;9.070;2023-03-01T05:35:28;-0.50;99.90
11264;DHT22;5689;48.798;9.070;2023-03-01T05:38:00;-0.40;99.90
11264;DHT22;5689;48.798;9.070;2023-03-01T05:40:28;-0.40;99.90
11264;DHT22;5689;48.798;9.070;2023-03-01T05:42:56;-0.60;99.90
11264;DHT22;5689;48.798;9.070;2023-03-01T05:45:26;-0.70;99.90
11264;DHT22;5689;48.798;9.070;2023-03-01T05:47:54;-0.50;99.90
11264;DHT22;5689;48.798;9.070;2023-03-01T05:50:24;-0.30;99.90
11264;DHT22;5689;48.798;9.070;2023-03-01T05:52:57;-0.50;99.90
11264;DHT22;5689;48.798;9.070;2023-03-01T05:55:28;-0.50;99.90
11264;DHT22;5689;48.798;9.070;2023-03-01T05:57:58;-0.50;99.90
11264;DHT22;5689;48.798;9.070;2023-03-01T06:00:26;-0.40;99.90
11264;DHT22;5689;48.798;9.070;2023-03-01T06:02:55;-0.50;99.90
11264;DHT22;5689;48.798;9.070;2023-03-01T06:05:24;-0.80;99.90
11264;DHT22;5689;48.798;9.070;2023-03-01T06:07:53;-0.90;99.90
11264;DHT22;5689;48.798;9.070;2023-03-01T06:10:22;-1.10;99.90
11264;DHT22;5689;48.798;9.070;2023-03-01T06:12:51;-1.10;99.90
11264;DHT22;5689;48.798;9.070;2023-03-01T06:15:20;-1.20;99.90
11264;DHT22;5689;48.798;9.070;2023-03-01T06:17:48;-1.20;99.90
11264;DHT22;5689;48.798;9.070;2023-03-01T06:20:19;-1.30;99.90
11264;DHT22;5689;48.798;9.070;2023-03-01T06:22:47;-1.30;99.90
11264;DHT22;5689;48.798;9.070;2023-03-01T06:25:18;-1.20;99.90
11264;DHT22;5689;48.798;9.070;2023-03-01T06:27:47;-1.20;99.90
11264;DHT22;5689;48.798;9.070;2023-03-01T06:30:18;-1.10;99.90
11264;DHT22;5689;48.798;9.070;2023-03-01T06:32:46;-1.00;99.90
11264;DHT22;5689;48.798;9.070;2023-03-01T06:35:16;-1.00;99.90
11264;DHT22;5689;48.798;9.070;2023-03-01T06:37:45;-1.00;99.90
11264;DHT22;5689;48.798;9.070;2023-03-01T06:40:14;-0.80;99.90
11264;DHT22;5689;48.798;9.070;2023-03-01T06:42:47;-0.90;99.90
11264;DHT22;5689;48.798;9.070;2023-03-01T06:45:18;-0.90;99.90
11264;DHT22;5689;48.798;9.070;2023-03-01T06:47:46;-1.10;99.90
11264;DHT22;5689;48.798;9.070;2023-03-01T06:50:15;-1.00;99.90
11264;DHT22;5689;48.798;9.070;2023-03-01T06:52:44;-1.10;99.90
11264;DHT22;5689;48.798;9.070;2023-03-01T06:55:11;-1.10;99.90
11264;DHT22;5689;48.798;9.070;2023-03-01T06:57:39;-1.00;99.90
11264;DHT22;5689;48.798;9.070;2023-03-01T07:00:08;-0.80;99.90
11264;DHT22;5689;48.798;9.070;2023-03-01T07:02:38;-0.80;99.90
11264;DHT22;5689;48.798;9.070;2023-03-01T07:05:07;-0.80;99.90
11264;DHT22;5689;48.798;9.070;2023-03-01T07:07:35;-0.70;99.90
11264;DHT22;5689;48.798;9.070;2023-03-01T07:10:04;-0.60;99.90
11264;DHT22;5689;48.798;9.070;2023-03-01T07:12:32;-0.70;99.90
11264;DHT22;5689;48.798;9.070;2023-03-01T07:15:00;-0.70;99.90
11264;DHT22;5689;48.798;9.070;2023-03-01T07:17:28;-0.70;99.90
11264;DHT22;5689;48.798;9.070;2023-03-01T07:19:58;-0.90;99.90
11264;DHT22;5689;48.798;9.070;2023-03-01T07:22:26;-0.90;99.90
11264;DHT22;5689;48.798;9.070;2023-03-01T07:24:53;-0.90;99.90
11264;DHT22;5689;48.798;9.070;2023-03-01T07:27:22;-0.80;99.90
11264;DHT22;5689;48.798;9.070;2023-03-01T07:29:50;-0.60;99.90
11264;DHT22;5689;48.798;9.070;2023-03-01T07:32:18;-0.50;99.90
11264;DHT22;5689;48.798;9.070;2023-03-01T07:34:47;-0.10;99.90
11264;DHT22;5689;48.798;9.070;2023-03-01T07:37:16;0.00;99.90
11264;DHT22;5689;48.798;9.070;2023-03-01T07:39:45;0.20;99.90
11264;DHT22;5689;48.798;9.070;2023-03-01T07:42:13;-0.10;99.90
11264;DHT22;5689;48.798;9.070;2023-03-01T07:44:41;0.20;99.90
11264;DHT22;5689;48.798;9.070;2023-03-01T07:47:09;0.90;99.90
11264;DHT22;5689;48.798;9.070;2023-03-01T07:49:38;2.50;99.90
11264;DHT22;5689;48.798;9.070;2023-03-01T07:52:06;3.90;99.90
11264;DHT22;5689;48.798;9.070;2023-03-01T07:54:35;4.10;99.90
11264;DHT22;5689;48.798;9.070;2023-03-01T07:57:03;3.50;99.90
11264;DHT22;5689;48.798;9.070;2023-03-01T07:59:32;4.20;99.90
11264;DHT22;5689;48.798;9.070;2023-03-01T08:02:00;4.20;99.90
11264;DHT22;5689;48.798;9.070;2023-03-01T08:04:28;4.80;99.90
11264;DHT22;5689;48.798;9.070;2023-03-01T08:06:56;5.90;99.50
11264;DHT22;5689;48.798;9.070;2023-03-01T08:09:25;6.20;98.90
11264;DHT22;5689;48.798;9.070;2023-03-01T08:11:56;6.80;96.20
11264;DHT22;5689;48.798;9.070;2023-03-01T08:14:26;7.10;96.10
11264;DHT22;5689;48.798;9.070;2023-03-01T08:16:54;7.80;94.40
11264;DHT22;5689;48.798;9.070;2023-03-01T08:19:22;8.20;92.50
11264;DHT22;5689;48.798;9.070;2023-03-01T08:21:50;7.90;92.10
11264;DHT22;5689;48.798;9.070;2023-03-01T08:24:19;8.20;91.50
11264;DHT22;5689;48.798;9.070;2023-03-01T08:26:47;9.20;89.40
11264;DHT22;5689;48.798;9.070;2023-03-01T08:29:16;9.70;88.20
11264;DHT22;5689;48.798;9.070;2023-03-01T08:31:44;7.50;89.30
11264;DHT22;5689;48.798;9.070;2023-03-01T08:34:15;7.70;91.30
11264;DHT22;5689;48.798;9.070;2023-03-01T08:36:45;7.90;90.10
11264;DHT22;5689;48.798;9.070;2023-03-01T08:39:15;9.00;89.60
11264;DHT22;5689;48.798;9.070;2023-03-01T08:41:45;8.90;85.90
11264;DHT22;5689;48.798;9.070;2023-03-01T08:44:16;9.10;83.90
11264;DHT22;5689;48.798;9.070;2023-03-01T08:46:44;8.80;87.10
11264;DHT22;5689;48.798;9.070;2023-03-01T08:49:14;9.20;84.30
11264;DHT22;5689;48.798;9.070;2023-03-01T08:51:43;9.30;82.30
11264;DHT22;5689;48.798;9.070;2023-03-01T08:54:12;9.60;84.10
11264;DHT22;5689;48.798;9.070;2023-03-01T08:56:41;9.50;82.10
11264;DHT22;5689;48.798;9.070;2023-03-01T08:59:10;8.80;83.10
11264;DHT22;5689;48.798;9.070;2023-03-01T09:01:40;9.90;83.10
11264;DHT22;5689;48.798;9.070;2023-03-01T09:04:10;10.50;78.40
11264;DHT22;5689;48.798;9.070;2023-03-01T09:06:39;10.30;78.50
11264;DHT22;5689;48.798;9.070;2023-03-01T09:09:13;8.80;81.60
11264;DHT22;5689;48.798;9.070;2023-03-01T09:11:43;9.10;81.60
11264;DHT22;5689;48.798;9.070;2023-03-01T09:14:13;8.80;82.30
11264;DHT22;5689;48.798;9.070;2023-03-01T09:16:43;9.40;81.90
11264;DHT22;5689;48.798;9.070;2023-03-01T09:19:11;10.70;78.70
11264;DHT22;5689;48.798;9.070;2023-03-01T09:21:39;10.60;78.90
11264;DHT22;5689;48.798;9.070;2023-03-01T09:24:12;8.50;79.90
11264;DHT22;5689;48.798;9.070;2023-03-01T09:26:41;8.30;82.30
11264;DHT22;5689;48.798;9.070;2023-03-01T09:29:09;8.90;82.80
11264;DHT22;5689;48.798;9.070;2023-03-01T09:31:38;8.10;81.40
11264;DHT22;5689;48.798;9.070;2023-03-01T09:34:08;7.40;84.90
11264;DHT22;5689;48.798;9.070;2023-03-01T09:36:36;7.90;82.40
11264;DHT22;5689;48.798;9.070;2023-03-01T09:39:05;7.90;83.00
11264;DHT22;5689;48.798;9.070;2023-03-01T09:41:43;9.80;81.80
11264;DHT22;5689;48.798;9.070;2023-03-01T09:44:27;9.30;76.90
11264;DHT22;5689;48.798;9.070;2023-03-01T09:46:58;7.40;81.70
11264;DHT22;5689;48.798;9.070;2023-03-01T09:49:30;6.00;86.40
11264;DHT22;5689;48.798;9.070;2023-03-01T09:52:02;7.00;87.20
11264;DHT22;5689;48.798;9.070;2023-03-01T09:54:31;8.80;83.50
11264;DHT22;5689;48.798;9.070;2023-03-01T09:57:15;9.90;79.70
11264;DHT22;5689;48.798;9.070;2023-03-01T09:59:56;8.90;77.80
11264;DHT22;5689;48.798;9.070;2023-03-01T10:02:36;8.80;81.60
11264;DHT22;5689;48.798;9.070;2023-03-01T10:05:19;9.30;79.80
11264;DHT22;5689;48.798;9.070;2023-03-01T10:07:55;10.50;77.50
11264;DHT22;5689;48.798;9.070;2023-03-01T10:10:28;10.10;78.10
11264;DHT22;5689;48.798;9.070;2023-03-01T10:13:10;9.80;75.90
11264;DHT22;5689;48.798;9.070;2023-03-01T10:15:43;10.40;76.80
11264;DHT22;5689;48.798;9.070;2023-03-01T10:18:14;11.10;73.40
11264;DHT22;5689;48.798;9.070;2023-03-01T10:20:48;13.10;70.70
11264;DHT22;5689;48.798;9.070;2023-03-01T10:23:19;12.20;70.70
11264;DHT22;5689;48.798;9.070;2023-03-01T10:26:03;12.80;69.90
11264;DHT22;5689;48.798;9.070;2023-03-01T10:28:57;12.40;70.50
11264;DHT22;5689;48.798;9.070;2023-03-01T10:31:37;14.00;66.70
11264;DHT22;5689;48.798;9.070;2023-03-01T10:34:11;14.90;65.00
11264;DHT22;5689;48.798;9.070;2023-03-01T10:36:47;11.50;69.30
11264;DHT22;5689;48.798;9.070;2023-03-01T10:39:18;12.10;70.20
11264;DHT22;5689;48.798;9.070;2023-03-01T10:41:58;11.50;69.80
11264;DHT22;5689;48.798;9.070;2023-03-01T10:44:44;12.00;72.10
11264;DHT22;5689;48.798;9.070;2023-03-01T10:47:15;12.40;70.10
11264;DHT22;5689;48.798;9.070;2023-03-01T10:49:59;12.70;69.40
11264;DHT22;5689;48.798;9.070;2023-03-01T10:52:33;12.20;69.10
11264;DHT22;5689;48.798;9.070;2023-03-01T10:55:04;12.40;67.40
11264;DHT22;5689;48.798;9.070;2023-03-01T10:57:47;13.10;66.90
11264;DHT22;5689;48.798;9.070;2023-03-01T11:00:20;14.60;65.90
11264;DHT22;5689;48.798;9.070;2023-03-01T11:02:51;14.10;64.60
11264;DHT22;5689;48.798;9.070;2023-03-01T11:05:22;15.90;61.20
11264;DHT22;5689;48.798;9.070;2023-03-01T11:07:54;11.70;68.50
11264;DHT22;5689;48.798;9.070;2023-03-01T11:10:24;14.50;64.20
11264;DHT22;5689;48.798;9.070;2023-03-01T11:12:54;15.30;59.50
11264;DHT22;5689;48.798;9.070;2023-03-01T11:15:33;12.30;65.10
11264;DHT22;5689;48.798;9.070;2023-03-01T11:18:01;13.00;66.70
11264;DHT22;5689;48.798;9.070;2023-03-01T11:20:39;14.40;61.80
11264;DHT22;5689;48.798;9.070;2023-03-01T11:23:12;14.10;62.60
11264;DHT22;5689;48.798;9.070;2023-03-01T11:25:42;15.20;60.10
11264;DHT22;5689;48.798;9.070;2023-03-01T11:28:14;15.60;60.60
11264;DHT22;5689;48.798;9.070;2023-03-01T11:30:49;13.90;60.90
11264;DHT22;5689;48.798;9.070;2023-03-01T11:33:37;13.10;62.80
11264;DHT22;5689;48.798;9.070;2023-03-01T11:36:11;15.90;60.50
11264;DHT22;5689;48.798;9.070;2023-03-01T11:38:43;14.60;57.70
11264;DHT22;5689;48.798;9.070;2023-03-01T11:41:14;12.80;63.10
11264;DHT22;5689;48.798;9.070;2023-03-01T11:43:49;12.40;64.40
11264;DHT22;5689;48.798;9.070;2023-03-01T11:46:39;12.50;63.00
11264;DHT22;5689;48.798;9.070;2023-03-01T11:49:33;12.20;63.30
11264;DHT22;5689;48.798;9.070;2023-03-01T11:52:16;11.70;61.40
11264;DHT22;5689;48.798;9.070;2023-03-01T11:54:58;11.10;66.50
11264;DHT22;5689;48.798;9.070;2023-03-01T11:57:43;14.40;61.00
11264;DHT22;5689;48.798;9.070;2023-03-01T12:00:25;13.40;62.40
11264;DHT22;5689;48.798;9.070;2023-03-01T12:03:25;14.30;62.30
11264;DHT22;5689;48.798;9.070;2023-03-01T12:06:07;16.10;56.60
11264;DHT22;5689;48.798;9.070;2023-03-01T12:08:43;14.40;60.60
11264;DHT22;5689;48.798;9.070;2023-03-01T12:11:26;14.70;58.40
11264;DHT22;5689;48.798;9.070;2023-03-01T12:14:21;14.50;60.80
11264;DHT22;5689;48.798;9.070;2023-03-01T12:17:02;15.40;57.70
11264;DHT22;5689;48.798;9.070;2023-03-01T12:19:41;15.50;59.60
11264;DHT22;5689;48.798;9.070;2023-03-01T12:22:29;16.20;58.80
11264;DHT22;5689;48.798;9.070;2023-03-01T12:25:20;16.10;57.20
11264;DHT22;5689;48.798;9.070;2023-03-01T12:31:05;14.90;60.30
11264;DHT22;5689;48.798;9.070;2023-03-01T12:33:45;15.30;57.00
11264;DHT22;5689;48.798;9.070;2023-03-01T12:36:45;14.40;59.10
11264;DHT22;5689;48.798;9.070;2023-03-01T12:39:28;16.40;57.30
11264;DHT22;5689;48.798;9.070;2023-03-01T12:42:04;13.40;62.10
11264;DHT22;5689;48.798;9.070;2023-03-01T12:44:57;14.10;60.70
11264;DHT22;5689;48.798;9.070;2023-03-01T12:47:46;14.80;59.30
11264;DHT22;5689;48.798;9.070;2023-03-01T12:50:21;14.50;59.00
11264;DHT22;5689;48.798;9.070;2023-03-01T12:52:52;15.20;60.10
11264;DHT22;5689;48.798;9.070;2023-03-01T12:55:28;14.10;59.90
11264;DHT22;5689;48.798;9.070;2023-03-01T12:58:07;15.50;59.20
11264;DHT22;5689;48.798;9.070;2023-03-01T13:00:45;16.10;57.60
11264;DHT22;5689;48.798;9.070;2023-03-01T13:03:21;16.50;56.30
11264;DHT22;5689;48.798;9.070;2023-03-01T13:06:04;16.80;56.40
11264;DHT22;5689;48.798;9.070;2023-03-01T13:08:38;15.90;56.20
11264;DHT22;5689;48.798;9.070;2023-03-01T13:11:16;15.30;59.00
11264;DHT22;5689;48.798;9.070;2023-03-01T13:13:46;14.70;58.00
11264;DHT22;5689;48.798;9.070;2023-03-01T13:19:13;18.20;54.70
11264;DHT22;5689;48.798;9.070;2023-03-01T13:21:42;15.00;57.50
11264;DHT22;5689;48.798;9.070;2023-03-01T13:24:26;17.00;56.00
11264;DHT22;5689;48.798;9.070;2023-03-01T13:27:18;17.50;55.50
11264;DHT22;5689;48.798;9.070;2023-03-01T13:29:52;16.70;57.00
11264;DHT22;5689;48.798;9.070;2023-03-01T13:32:22;17.30;54.20
11264;DHT22;5689;48.798;9.070;2023-03-01T13:35:42;13.80;59.90
11264;DHT22;5689;48.798;9.070;2023-03-01T13:38:36;13.80;58.30
11264;DHT22;5689;48.798;9.070;2023-03-01T13:41:05;16.40;57.60
11264;DHT22;5689;48.798;9.070;2023-03-01T13:43:35;17.00;55.50
11264;DHT22;5689;48.798;9.070;2023-03-01T13:46:09;18.20;54.60
11264;DHT22;5689;48.798;9.070;2023-03-01T13:48:39;16.50;56.00
11264;DHT22;5689;48.798;9.070;2023-03-01T13:51:12;17.60;54.50
11264;DHT22;5689;48.798;9.070;2023-03-01T13:53:42;16.00;55.50
11264;DHT22;5689;48.798;9.070;2023-03-01T13:56:13;15.00;57.30
11264;DHT22;5689;48.798;9.070;2023-03-01T13:58:53;15.30;57.50
11264;DHT22;5689;48.798;9.070;2023-03-01T14:01:28;15.40;56.00
11264;DHT22;5689;48.798;9.070;2023-03-01T14:03:57;15.90;56.00
11264;DHT22;5689;48.798;9.070;2023-03-01T14:06:28;16.10;56.10
11264;DHT22;5689;48.798;9.070;2023-03-01T14:09:04;16.20;56.30
11264;DHT22;5689;48.798;9.070;2023-03-01T14:12:10;15.40;57.60
11264;DHT22;5689;48.798;9.070;2023-03-01T14:14:48;14.50;57.40
11264;DHT22;5689;48.798;9.070;2023-03-01T14:20:20;15.10;58.30
11264;DHT22;5689;48.798;9.070;2023-03-01T14:22:53;15.00;57.70
11264;DHT22;5689;48.798;9.070;2023-03-01T14:25:30;12.90;59.60
11264;DHT22;5689;48.798;9.070;2023-03-01T14:28:02;14.20;59.50
11264;DHT22;5689;48.798;9.070;2023-03-01T14:30:34;14.80;58.40
11264;DHT22;5689;48.798;9.070;2023-03-01T14:33:06;13.50;59.00
11264;DHT22;5689;48.798;9.070;2023-03-01T14:35:35;13.40;60.90
11264;DHT22;5689;48.798;9.070;2023-03-01T14:38:05;13.20;60.70
11264;DHT22;5689;48.798;9.070;2023-03-01T14:40:35;13.90;60.00
11264;DHT22;5689;48.798;9.070;2023-03-01T14:43:10;13.90;59.70
11264;DHT22;5689;48.798;9.070;2023-03-01T14:45:39;13.70;59.60
11264;DHT22;5689;48.798;9.070;2023-03-01T14:48:07;13.10;61.20
11264;DHT22;5689;48.798;9.070;2023-03-01T14:50:40;13.10;60.40
11264;DHT22;5689;48.798;9.070;2023-03-01T14:53:16;12.20;61.60
11264;DHT22;5689;48.798;9.070;2023-03-01T14:55:47;12.40;62.40
11264;DHT22;5689;48.798;9.070;2023-03-01T14:58:19;12.70;63.30
11264;DHT22;5689;48.798;9.070;2023-03-01T15:00:51;12.20;62.70
11264;DHT22;5689;48.798;9.070;2023-03-01T15:03:27;13.00;63.80
11264;DHT22;5689;48.798;9.070;2023-03-01T15:05:59;13.20;61.80
11264;DHT22;5689;48.798;9.070;2023-03-01T15:08:31;12.70;62.70
11264;DHT22;5689;48.798;9.070;2023-03-01T15:11:03;13.20;62.00
11264;DHT22;5689;48.798;9.070;2023-03-01T15:13:35;12.50;61.90
11264;DHT22;5689;48.798;9.070;2023-03-01T15:16:06;13.10;62.20
11264;DHT22;5689;48.798;9.070;2023-03-01T15:18:36;11.80;64.20
11264;DHT22;5689;48.798;9.070;2023-03-01T15:21:06;12.40;63.40
11264;DHT22;5689;48.798;9.070;2023-03-01T15:23:38;11.50;64.00
11264;DHT22;5689;48.798;9.070;2023-03-01T15:26:24;11.10;65.30
11264;DHT22;5689;48.798;9.070;2023-03-01T15:28:55;10.10;66.10
11264;DHT22;5689;48.798;9.070;2023-03-01T15:31:27;9.70;69.50
11264;DHT22;5689;48.798;9.070;2023-03-01T15:34:09;9.70;69.60
11264;DHT22;5689;48.798;9.070;2023-03-01T15:36:41;9.60;70.10
11264;DHT22;5689;48.798;9.070;2023-03-01T15:39:35;9.50;70.70
11264;DHT22;5689;48.798;9.070;2023-03-01T15:42:07;9.10;70.90
11264;DHT22;5689;48.798;9.070;2023-03-01T15:44:37;9.40;70.40
11264;DHT22;5689;48.798;9.070;2023-03-01T15:47:26;9.40;70.80
11264;DHT22;5689;48.798;9.070;2023-03-01T15:49:55;9.00;71.40
11264;DHT22;5689;48.798;9.070;2023-03-01T15:52:27;9.80;70.30
11264;DHT22;5689;48.798;9.070;2023-03-01T15:54:59;9.90;69.80
11264;DHT22;5689;48.798;9.070;2023-03-01T15:57:28;10.10;68.30
11264;DHT22;5689;48.798;9.070;2023-03-01T15:59:56;9.50;70.30
11264;DHT22;5689;48.798;9.070;2023-03-01T16:02:24;9.40;70.90
11264;DHT22;5689;48.798;9.070;2023-03-01T16:04:54;9.00;71.70
11264;DHT22;5689;48.798;9.070;2023-03-01T16:07:23;9.30;71.30
11264;DHT22;5689;48.798;9.070;2023-03-01T16:09:54;9.10;71.10
11264;DHT22;5689;48.798;9.070;2023-03-01T16:12:25;9.40;71.20
11264;DHT22;5689;48.798;9.070;2023-03-01T16:14:55;9.40;71.20
11264;DHT22;5689;48.798;9.070;2023-03-01T16:17:24;9.40;71.70
11264;DHT22;5689;48.798;9.070;2023-03-01T16:19:52;9.60;69.90
11264;DHT22;5689;48.798;9.070;2023-03-01T16:22:22;9.70;69.80
11264;DHT22;5689;48.798;9.070;2023-03-01T16:24:52;9.30;70.50
11264;DHT22;5689;48.798;9.070;2023-03-01T16:27:21;9.20;70.70
11264;DHT22;5689;48.798;9.070;2023-03-01T16:29:51;8.60;72.10
11264;DHT22;5689;48.798;9.070;2023-03-01T16:32:19;8.90;72.50